• Join FlightAware (Why Join?)
  • Login
  • US Flag 
02:45AM EDT


 

Airport Tracker/Info


-or-


 

Live Flight TrackerFlight Track Log ✈ PDT4207 ✈ 23-Feb-2014 ✈ KPHL - KBGM

Flight Track Log - Related Links

Times and Time Zones

All times are in EST time to prevent confusion due to time zone crossing. See the PDT4207 flight status page for this flight to view local times or setup timezone preferences in your user account.

Time Position Orientation Groundspeed Altitude Reporting Facility
EST Latitude Longitude Course Direction KTS MPH feet Rate Location/Type
09:56PM 39.9000 -75.2333 311° West 122 140 500  Level Philadelphia TRACON
09:56PM 39.9000 -75.2333 311° West 116 133 800 1,440 Climbing Philadelphia TRACON
09:57PM 39.9000 -75.2833 270° West 128 147 2,100 1,320 Climbing Philadelphia TRACON
09:58PM 40.0635 -75.4135 323° Northwest  Level FlightAware Approximate
09:58PM 39.9167 -75.3167 303° West 113 130 3,500  Level Philadelphia TRACON
09:59PM 40.1258 -75.4758 323° Northwest  Level FlightAware Approximate
09:59PM 39.9167 -75.3667 270° West 113 130 4,600  Level Philadelphia TRACON
10:00PM 40.1894 -75.5341 311° West  Level FlightAware Approximate
10:00PM 39.9333 -75.4000 303° West 118 136 5,600  Level Philadelphia TRACON
10:01PM 40.2488 -75.5982 311° West  Level FlightAware Approximate
10:01PM 39.9500 -75.4500 294° West 131 151 6,600  Level Philadelphia TRACON
10:02PM 39.9833 -75.4833 323° Northwest 162 186 7,600 900 Climbing Philadelphia TRACON
10:03PM 40.0333 -75.5000 346° North 188 216 8,400 840 Climbing Philadelphia TRACON
10:04PM 40.0764 -75.5156 345° North 202 232 9,400 1,080 Climbing New York Center
10:05PM 40.1342 -75.5331 347° North 202 232 10,700 1,140 Climbing New York Center
10:06PM 40.1836 -75.5444 350° North 202 232 11,700 660 Climbing New York Center
10:07PM 40.2436 -75.5542 353° North 212 244 12,100 180 Climbing New York Center
10:08PM 40.3117 -75.5725 348° North 231 266 12,100  Level New York Center
10:09PM 40.3881 -75.5914 349° North 248 285 12,100  Level New York Center
10:10PM 40.4625 -75.6075 351° North 259 298 12,100  Level New York Center
10:11PM 40.5392 -75.6211 352° North 265 305 12,100  Level New York Center
10:12PM 40.6075 -75.6314 353° North 271 312 12,100  Level New York Center
10:13PM 40.6819 -75.6394 355° North 271 312 12,100  Level New York Center
10:14PM 40.7644 -75.6617 348° North 276 318 12,100  Level New York Center
10:15PM 40.8386 -75.6833 348° North 271 312 12,100  Level New York Center
10:16PM 40.9133 -75.6917 355° North 271 312 12,100  Level New York Center
10:17PM 40.9794 -75.7019 353° North 271 312 12,100 -60 Level New York Center
10:18PM 41.0539 -75.7156 352° North 271 312 12,000 -60 Descending New York Center
10:19PM 41.1194 -75.7425 343° North 260 299 12,000  Level New York Center
10:20PM 41.1978 -75.7619 349° North 255 293 12,000  Level New York Center
10:21PM 41.2536 -75.7717 353° North 255 293 12,000  Level New York Center
10:22PM 41.3281 -75.7828 354° North 255 293 12,000  Level New York Center
10:23PM 41.3942 -75.8014 348° North 250 288 12,000  Level New York Center
10:24PM 41.4581 -75.8172 349° North 244 281 12,000  Level New York Center
10:25PM 41.5281 -75.8336 350° North 234 269 12,000 -240 Level New York Center
10:26PM 41.5900 -75.8467 351° North 234 269 11,600 -540 Descending New York Center
10:27PM 41.6578 -75.8656 348° North 239 275 11,000 -660 Descending New York Center
10:28PM 41.7175 -75.8814 349° North 239 275 10,300 -900 Descending New York Center
10:29PM 41.7856 -75.9003 348° North 239 275 9,200 -1,260 Descending New York Center
10:30PM 41.8575 -75.9200 348° North 239 275 7,800 -1,260 Descending New York Center
10:31PM 41.9236 -75.9306 353° North 239 275 6,700 -1,200 Descending New York Center
10:32PM 41.9919 -75.9389 355° North 239 275 5,500 -1,200 Descending New York Center
10:33PM 42.0486 -75.9319 North 234 269 4,400 -900 Descending New York Center
10:34PM 42.1028 -75.9278 North 219 252 3,800 -720 Descending New York Center
10:35PM 42.1467 -75.9283 359° North 185 213 3,000 -840 Descending New York Center
10:36PM 42.1767 -75.9558 326° Northwest 144 166 2,200 -540 Descending New York Center
10:37PM 42.2219 -75.9681 349° North 136 157 2,000 -240 Descending New York Center